Oak Grove, Oregon
Current Conditions -  °F | °C
As of 5:53 PM on Thursday 18 Dec 2014 (Local Time) from KPDX Reporting Station
Overcast Overcast  
Wind Chill: 39°   Ceiling: 5000
Heat Index: 46°   Visibility: 10mi
Dew Point: 42°   Wind: 18mph
Humidity: 86%   Direction: 110°ESE
Pressure: 29.82"   Gusts: NA
Location:  45.42°N, 122.64°W
Report Text: KPDX 190153Z 11016KT 10SM OVC050 08/06 A2982 RMK AO2 RAE02 SLP097 P0000 T00780056
Loading
Personal Weather Stations






























Interactive Weather Map New forecast layout! Learn more

10-Day Weather Forecast

Advertisements
Track Severe Weather on mobile